createdAt,value
2022-11-10T00:01:10.901Z,12.13
2022-11-10T00:03:59.038Z,12.43
2022-11-10T00:06:49.881Z,12.88
2022-11-10T00:09:37.308Z,12.28
2022-11-10T00:12:24.269Z,13.58
2022-11-10T00:15:30.340Z,14.00
2022-11-10T00:18:17.506Z,11.30
2022-11-10T00:21:09.976Z,19.82
2022-11-10T00:23:57.667Z,17.15
2022-11-10T00:26:45.236Z,21.42
2022-11-10T00:29:32.701Z,20.57
2022-11-10T00:32:19.983Z,18.12
2022-11-10T00:35:08.044Z,18.80
2022-11-10T00:37:57.898Z,14.87
2022-11-10T00:40:45.132Z,11.83
2022-11-10T00:43:33.108Z,16.25
2022-11-10T00:46:22.331Z,11.30
2022-11-10T00:49:08.915Z,12.37
2022-11-10T00:51:56.449Z,24.43
2022-11-10T00:54:43.688Z,14.85
2022-11-10T00:57:31.285Z,12.28
2022-11-10T01:00:18.858Z,11.53
2022-11-10T01:03:06.336Z,14.00
2022-11-10T01:05:53.722Z,16.10
2022-11-10T01:08:42.295Z,13.20
2022-11-10T01:11:29.622Z,16.07
2022-11-10T01:14:16.857Z,17.15
2022-11-10T01:17:04.490Z,16.15
2022-11-10T01:19:54.419Z,15.23
2022-11-10T01:22:42.103Z,16.57
2022-11-10T01:25:29.399Z,20.57
2022-11-10T01:28:16.991Z,11.78
2022-11-10T01:31:10.206Z,13.72
2022-11-10T01:33:58.974Z,18.95
2022-11-10T01:36:47.205Z,13.75
2022-11-10T01:39:34.559Z,16.32
2022-11-10T01:42:29.975Z,19.07
2022-11-10T01:45:29.330Z,15.90
2022-11-10T01:48:19.608Z,17.52
2022-11-10T01:51:22.026Z,13.98
2022-11-10T01:54:15.589Z,19.73
2022-11-10T01:57:06.419Z,12.90
2022-11-10T01:59:56.667Z,15.43
2022-11-10T02:03:04.960Z,15.58
2022-11-10T02:05:53.670Z,18.23
2022-11-10T02:08:43.022Z,18.92
2022-11-10T02:11:32.798Z,20.32
2022-11-10T02:14:20.557Z,19.42
2022-11-10T02:17:07.923Z,18.55
2022-11-10T02:19:58.430Z,19.32
2022-11-10T02:22:46.015Z,24.00
2022-11-10T02:25:34.045Z,17.80
2022-11-10T02:28:21.614Z,22.13
2022-11-10T02:31:09.648Z,20.00
2022-11-10T02:33:57.098Z,20.27
2022-11-10T02:36:44.951Z,22.30
2022-11-10T02:39:32.251Z,21.37
2022-11-10T02:42:19.513Z,16.57
2022-11-10T02:45:08.687Z,18.75
2022-11-10T02:47:56.305Z,25.45
2022-11-10T02:50:44.435Z,16.30
2022-11-10T02:53:31.623Z,24.25
2022-11-10T02:56:32.038Z,24.20
2022-11-10T02:59:29.041Z,21.20
2022-11-10T03:02:23.126Z,23.18
2022-11-10T03:05:10.692Z,17.92
2022-11-10T03:08:00.571Z,10.80
2022-11-10T03:10:47.996Z,22.10
2022-11-10T03:13:51.614Z,17.82
2022-11-10T03:16:24.270Z,20.05
2022-11-10T03:19:11.530Z,20.17
2022-11-10T03:21:58.870Z,18.42
2022-11-10T03:24:46.026Z,21.10
2022-11-10T03:27:33.563Z,16.20
2022-11-10T03:30:20.738Z,18.07
2022-11-10T03:33:08.189Z,17.07
2022-11-10T03:35:55.439Z,28.17
2022-11-10T03:38:43.070Z,25.57
2022-11-10T03:41:30.050Z,20.90
2022-11-10T03:44:17.500Z,25.02
2022-11-10T03:47:04.880Z,20.95
2022-11-10T03:49:52.370Z,27.25
2022-11-10T03:52:41.130Z,20.40
2022-11-10T03:55:28.497Z,20.00
2022-11-10T03:58:15.843Z,19.17
2022-11-10T04:01:03.131Z,11.65
2022-11-10T04:03:51.758Z,18.92
2022-11-10T04:06:57.567Z,19.85
2022-11-10T04:09:44.924Z,15.30
2022-11-10T04:12:50.016Z,12.65
2022-11-10T04:15:43.217Z,19.32
2022-11-10T04:18:30.794Z,18.52
2022-11-10T04:21:18.568Z,23.22
2022-11-10T04:24:05.876Z,22.48
2022-11-10T04:26:53.618Z,22.50
2022-11-10T04:29:41.096Z,23.35
2022-11-10T04:32:28.294Z,22.70
2022-11-10T04:35:15.727Z,20.75
2022-11-10T04:38:02.865Z,18.70
2022-11-10T04:40:49.683Z,19.50
2022-11-10T04:43:37.811Z,24.32
2022-11-10T04:46:28.697Z,20.62
2022-11-10T04:49:16.155Z,19.92
2022-11-10T04:52:03.715Z,16.35
2022-11-10T04:54:51.037Z,14.47
2022-11-10T04:57:38.764Z,18.48
2022-11-10T05:00:25.968Z,13.60
2022-11-10T05:03:13.903Z,12.90
2022-11-10T05:06:01.309Z,16.75
2022-11-10T05:08:48.853Z,12.18
2022-11-10T05:11:36.209Z,15.23
2022-11-10T05:14:23.729Z,13.98
2022-11-10T05:17:11.231Z,13.08
2022-11-10T05:19:58.464Z,14.30
2022-11-10T05:22:49.332Z,12.98
2022-11-10T05:25:38.679Z,19.77
2022-11-10T05:28:25.829Z,17.30
2022-11-10T05:31:13.830Z,15.32
2022-11-10T05:34:01.246Z,14.85
2022-11-10T05:36:48.538Z,13.55
2022-11-10T05:39:35.769Z,20.45
2022-11-10T05:42:22.886Z,19.15
2022-11-10T05:45:10.647Z,16.32
2022-11-10T05:47:57.968Z,19.48
2022-11-10T05:50:46.356Z,23.52
2022-11-10T05:53:33.874Z,21.57
2022-11-10T05:56:21.006Z,26.25
2022-11-10T05:59:07.972Z,18.37
2022-11-10T06:01:55.528Z,23.77
2022-11-10T06:04:43.038Z,24.77
2022-11-10T06:07:30.577Z,26.87
2022-11-10T06:10:18.126Z,21.75
2022-11-10T06:13:06.206Z,19.30
2022-11-10T06:15:53.469Z,15.83
2022-11-10T06:18:40.960Z,26.45
2022-11-10T06:21:28.199Z,19.00
2022-11-10T06:24:15.737Z,19.00
2022-11-10T06:27:03.004Z,21.80
2022-11-10T06:29:50.418Z,20.10
2022-11-10T06:32:37.822Z,20.40
2022-11-10T06:35:25.899Z,23.12
2022-11-10T06:38:13.349Z,19.62
2022-11-10T06:41:00.869Z,20.57
2022-11-10T06:43:47.953Z,19.20
2022-11-10T06:46:39.620Z,28.07
2022-11-10T06:49:24.197Z,21.20
2022-11-10T06:52:11.775Z,26.95
2022-11-10T06:54:59.767Z,18.15
2022-11-10T06:57:47.227Z,21.55
2022-11-10T07:00:34.752Z,22.17
2022-11-10T07:03:22.140Z,23.22
2022-11-10T07:06:09.622Z,26.17
2022-11-10T07:08:57.093Z,31.00
2022-11-10T07:11:44.524Z,25.12
2022-11-10T07:14:32.082Z,26.97
2022-11-10T07:17:20.261Z,25.25
2022-11-10T07:20:08.912Z,25.30
2022-11-10T07:23:04.336Z,21.68
2022-11-10T07:25:51.665Z,26.87
2022-11-10T07:28:38.930Z,33.25
2022-11-10T07:31:26.316Z,25.85
2022-11-10T07:34:13.858Z,25.05
2022-11-10T07:37:01.555Z,25.00
2022-11-10T07:39:49.033Z,20.90
2022-11-10T07:42:41.007Z,22.73
2022-11-10T07:45:28.844Z,16.07
2022-11-10T07:48:16.547Z,24.98
2022-11-10T07:51:03.928Z,22.75
2022-11-10T07:53:51.308Z,28.73
2022-11-10T07:56:38.799Z,31.50
2022-11-10T07:59:26.387Z,28.55
2022-11-10T08:02:13.612Z,32.60
2022-11-10T08:05:00.697Z,30.15
2022-11-10T08:07:48.254Z,33.63
2022-11-10T08:10:36.190Z,25.00
2022-11-10T08:13:23.877Z,28.80
2022-11-10T08:16:11.334Z,27.32
2022-11-10T08:18:58.610Z,27.90
2022-11-10T08:21:46.026Z,26.20
2022-11-10T08:24:33.268Z,22.02
2022-11-10T08:27:21.029Z,24.82
2022-11-10T08:30:09.209Z,28.55
2022-11-10T08:32:59.098Z,26.25
2022-11-10T08:35:49.126Z,26.12
2022-11-10T08:38:36.713Z,31.48
2022-11-10T08:41:23.909Z,20.82
2022-11-10T08:44:13.557Z,30.15
2022-11-10T08:47:01.369Z,29.30
2022-11-10T08:49:48.947Z,34.35
2022-11-10T08:52:36.037Z,25.10
2022-11-10T08:55:23.829Z,31.55
2022-11-10T08:58:16.516Z,21.35
2022-11-10T09:01:03.489Z,29.80
2022-11-10T09:03:50.963Z,22.60
2022-11-10T09:06:38.267Z,21.05
2022-11-10T09:09:27.076Z,22.48
2022-11-10T09:12:14.583Z,24.02
2022-11-10T09:15:02.136Z,23.22
2022-11-10T09:17:49.605Z,18.90
2022-11-10T09:20:38.798Z,14.60
2022-11-10T09:23:28.001Z,15.63
2022-11-10T09:26:15.209Z,22.62
2022-11-10T09:29:02.773Z,18.02
2022-11-10T09:31:51.580Z,13.85
2022-11-10T09:34:39.076Z,19.42
2022-11-10T09:37:26.484Z,12.40
2022-11-10T09:40:19.938Z,14.18
2022-11-10T09:43:08.969Z,18.57
2022-11-10T09:45:59.343Z,12.70
2022-11-10T09:48:52.719Z,13.20
2022-11-10T09:51:48.135Z,16.05
2022-11-10T09:54:41.618Z,11.03
2022-11-10T09:57:30.466Z,16.32
2022-11-10T10:00:18.863Z,12.10
2022-11-10T10:03:07.994Z,13.80
2022-11-10T10:05:58.371Z,12.23
2022-11-10T10:09:19.110Z,10.45
2022-11-10T10:12:33.789Z,16.67
2022-11-10T10:15:30.234Z,9.13
2022-11-10T10:18:38.660Z,13.50
2022-11-10T10:21:49.059Z,7.37
2022-11-10T10:24:38.582Z,11.15
2022-11-10T10:27:30.451Z,9.83
2022-11-10T10:30:22.173Z,15.20
2022-11-10T10:33:15.622Z,15.65
2022-11-10T10:36:05.561Z,13.40
2022-11-10T10:39:05.167Z,15.15
2022-11-10T10:41:55.057Z,18.62
2022-11-10T10:44:46.708Z,15.10
2022-11-10T10:47:41.292Z,19.05
2022-11-10T10:50:36.689Z,18.20
2022-11-10T10:53:29.279Z,14.20
2022-11-10T10:56:22.825Z,14.03
2022-11-10T10:59:13.547Z,10.93
2022-11-10T11:02:00.962Z,13.60
2022-11-10T11:04:49.907Z,16.77
2022-11-10T11:07:37.253Z,11.85
2022-11-10T11:10:27.803Z,15.05
2022-11-10T11:13:27.468Z,11.35
2022-11-10T11:16:14.775Z,16.15
2022-11-10T11:19:02.212Z,10.18
2022-11-10T11:21:59.344Z,9.70
2022-11-10T11:25:12.285Z,12.25
2022-11-10T11:28:17.792Z,8.68
2022-11-10T11:31:16.848Z,15.25
2022-11-10T11:34:12.588Z,14.45
2022-11-10T11:37:08.501Z,10.63
2022-11-10T11:40:21.274Z,11.45
2022-11-10T11:43:14.376Z,14.35
2022-11-10T11:46:16.573Z,11.85
2022-11-10T11:49:25.372Z,12.78
2022-11-10T11:52:15.945Z,13.35
2022-11-10T11:55:30.812Z,9.13
2022-11-10T11:58:36.662Z,10.03
2022-11-10T12:01:55.341Z,10.28
2022-11-10T12:04:48.740Z,12.55
2022-11-10T12:07:57.186Z,7.00
2022-11-10T12:10:59.533Z,12.90
2022-11-10T12:13:52.806Z,11.15
2022-11-10T12:16:43.448Z,10.13
2022-11-10T12:19:36.703Z,12.10
2022-11-10T12:22:30.014Z,7.90
2022-11-10T12:25:26.206Z,9.68
2022-11-10T12:28:22.795Z,9.63
2022-11-10T12:31:13.403Z,9.48
2022-11-10T12:34:09.292Z,13.83
2022-11-10T12:36:57.482Z,8.43
2022-11-10T12:39:51.785Z,8.80
2022-11-10T12:42:39.602Z,11.43
2022-11-10T12:45:39.239Z,12.75
2022-11-10T12:48:30.311Z,7.62
2022-11-10T12:51:35.684Z,6.50
2022-11-10T12:54:26.124Z,7.40
2022-11-10T12:57:16.444Z,8.15
2022-11-10T13:00:12.869Z,9.63
2022-11-10T13:03:00.127Z,9.88
2022-11-10T13:05:53.169Z,8.50
2022-11-10T13:08:47.563Z,8.28
2022-11-10T13:11:37.135Z,6.17
2022-11-10T13:14:26.766Z,9.93
2022-11-10T13:17:33.376Z,9.43
2022-11-10T13:20:42.224Z,11.70
2022-11-10T13:23:35.804Z,10.23
2022-11-10T13:26:44.590Z,11.73
2022-11-10T13:29:49.629Z,9.35
2022-11-10T13:32:37.382Z,12.15
2022-11-10T13:35:40.123Z,7.12
2022-11-10T13:38:39.371Z,9.05
2022-11-10T13:41:28.075Z,10.00
2022-11-10T13:44:33.450Z,8.50
2022-11-10T13:47:35.749Z,6.20
2022-11-10T13:50:42.531Z,9.15
2022-11-10T13:53:48.135Z,6.47
2022-11-10T13:57:13.274Z,9.13
2022-11-10T14:00:03.401Z,7.78
2022-11-10T14:02:53.785Z,6.42
2022-11-10T14:05:43.866Z,9.50
2022-11-10T14:08:34.017Z,9.85
2022-11-10T14:11:24.535Z,4.95
2022-11-10T14:14:21.874Z,11.38
2022-11-10T14:20:00.133Z,6.75
2022-11-10T14:22:49.845Z,7.17
2022-11-10T14:25:43.233Z,8.35
2022-11-10T14:28:33.783Z,12.73
2022-11-10T14:31:26.787Z,8.85
2022-11-10T14:34:16.592Z,7.12
2022-11-10T14:37:05.309Z,11.03
2022-11-10T14:40:02.131Z,11.80
2022-11-10T14:42:49.419Z,10.30
2022-11-10T14:45:37.939Z,9.60
2022-11-10T14:48:28.445Z,8.48
2022-11-10T14:51:25.664Z,15.00
2022-11-10T14:54:15.585Z,10.40
2022-11-10T14:57:02.691Z,7.92
2022-11-10T14:59:49.963Z,9.30
2022-11-10T15:02:39.218Z,13.68
2022-11-10T15:05:27.071Z,7.37
2022-11-10T15:08:16.099Z,12.00
2022-11-10T15:11:03.941Z,8.40
2022-11-10T15:13:53.005Z,15.03
2022-11-10T15:16:41.200Z,10.30
2022-11-10T15:19:33.927Z,13.50
2022-11-10T15:22:25.356Z,13.93
2022-11-10T15:25:18.509Z,15.45
2022-11-10T15:28:26.442Z,10.55
2022-11-10T15:31:29.155Z,12.03
2022-11-10T15:34:42.399Z,13.13
2022-11-10T15:37:32.065Z,12.07
2022-11-10T15:40:37.191Z,11.03
2022-11-10T15:43:27.580Z,8.53
2022-11-10T15:46:18.702Z,12.03
2022-11-10T15:49:11.987Z,13.25
2022-11-10T15:52:02.039Z,12.70
2022-11-10T15:54:51.576Z,14.98
2022-11-10T15:57:38.596Z,15.38
2022-11-10T16:00:25.811Z,16.42
2022-11-10T16:03:19.076Z,21.62
2022-11-10T16:06:06.674Z,16.02
2022-11-10T16:08:54.132Z,17.42
2022-11-10T16:11:45.344Z,14.55
2022-11-10T16:14:32.536Z,10.63
2022-11-10T16:17:21.538Z,13.98
2022-11-10T16:20:17.352Z,16.60
2022-11-10T16:23:04.681Z,18.85
2022-11-10T16:25:54.591Z,16.02
2022-11-10T16:28:43.290Z,16.80
2022-11-10T16:31:32.463Z,20.52
2022-11-10T16:34:21.362Z,12.03
2022-11-10T16:37:11.885Z,14.93
2022-11-10T16:39:59.447Z,10.43
2022-11-10T16:42:46.723Z,19.07
2022-11-10T16:45:36.889Z,12.75
2022-11-10T16:48:27.102Z,12.80
2022-11-10T16:51:15.077Z,10.58
2022-11-10T16:54:02.788Z,18.73
2022-11-10T16:56:51.994Z,13.53
2022-11-10T16:59:38.990Z,14.45
2022-11-10T17:02:34.088Z,19.55
2022-11-10T17:05:23.129Z,16.50
2022-11-10T17:08:13.435Z,11.60
2022-11-10T17:11:01.783Z,15.93
2022-11-10T17:13:49.146Z,13.38
2022-11-10T17:16:38.523Z,10.88
2022-11-10T17:19:28.733Z,9.10
2022-11-10T17:22:18.747Z,14.03
2022-11-10T17:25:06.333Z,14.78
2022-11-10T17:27:54.235Z,11.05
2022-11-10T17:30:42.565Z,12.78
2022-11-10T17:33:30.174Z,11.53
2022-11-10T17:36:23.690Z,14.03
2022-11-10T17:39:16.109Z,13.78
2022-11-10T17:42:03.627Z,12.05
2022-11-10T17:44:53.903Z,12.58
2022-11-10T17:47:41.553Z,9.13
2022-11-10T17:50:32.091Z,7.37
2022-11-10T17:53:29.165Z,8.50
2022-11-10T17:56:16.614Z,17.25
2022-11-10T17:59:04.081Z,13.58
2022-11-10T18:01:53.020Z,12.03
2022-11-10T18:04:40.216Z,13.53
2022-11-10T18:07:27.555Z,13.10
2022-11-10T18:10:15.833Z,14.90
2022-11-10T18:13:03.168Z,21.82
2022-11-10T18:15:52.205Z,16.85
2022-11-10T18:21:49.310Z,17.48
2022-11-10T18:24:37.075Z,19.85
2022-11-10T18:27:25.418Z,18.55
2022-11-10T18:30:12.951Z,16.95
2022-11-10T18:33:05.983Z,20.90
2022-11-10T18:35:56.831Z,13.85
2022-11-10T18:38:43.876Z,19.02
2022-11-10T18:41:51.793Z,23.15
2022-11-10T18:44:38.986Z,11.15
2022-11-10T18:47:26.191Z,22.98
2022-11-10T18:50:13.793Z,16.85
2022-11-10T18:53:01.114Z,14.93
2022-11-10T18:55:55.566Z,17.45
2022-11-10T18:58:43.466Z,16.95
2022-11-10T19:01:31.329Z,24.20
2022-11-10T19:04:18.510Z,26.45
2022-11-10T19:07:06.702Z,25.55
2022-11-10T19:09:54.191Z,27.62
2022-11-10T19:12:41.696Z,27.90
2022-11-10T19:15:28.980Z,24.80
2022-11-10T19:18:16.802Z,23.55
2022-11-10T19:21:16.020Z,24.37
2022-11-10T19:24:03.243Z,23.73
2022-11-10T19:26:54.221Z,26.70
2022-11-10T19:29:41.709Z,30.68
2022-11-10T19:32:30.108Z,26.97
2022-11-10T19:35:18.016Z,33.25
2022-11-10T19:38:05.763Z,32.73
2022-11-10T19:40:56.016Z,32.08
2022-11-10T19:43:47.456Z,33.65
2022-11-10T19:46:34.264Z,31.35
2022-11-10T19:49:23.001Z,40.67
2022-11-10T19:52:10.300Z,30.25
2022-11-10T19:54:57.720Z,33.02
2022-11-10T19:57:45.190Z,39.15
2022-11-10T20:00:32.714Z,39.00
2022-11-10T20:03:20.242Z,35.85
2022-11-10T20:06:10.841Z,35.25
2022-11-10T20:08:58.420Z,29.23
2022-11-10T20:11:46.293Z,26.48
2022-11-10T20:14:33.962Z,23.73
2022-11-10T20:17:21.567Z,22.27
2022-11-10T20:20:09.195Z,20.50
2022-11-10T20:22:58.078Z,16.97
2022-11-10T20:25:45.331Z,13.90
2022-11-10T20:28:33.718Z,17.98
2022-11-10T20:31:24.495Z,19.50
2022-11-10T20:34:12.001Z,18.15
2022-11-10T20:36:59.198Z,20.97
2022-11-10T20:39:46.651Z,17.77
2022-11-10T20:42:37.792Z,21.75
2022-11-10T20:45:24.282Z,23.45
2022-11-10T20:48:11.741Z,19.23
2022-11-10T20:51:00.472Z,25.08
2022-11-10T20:53:48.926Z,18.75
2022-11-10T20:56:36.357Z,22.77
2022-11-10T20:59:23.881Z,19.55
2022-11-10T21:02:13.208Z,21.60
2022-11-10T21:05:00.750Z,21.42
2022-11-10T21:07:48.276Z,21.57
2022-11-10T21:10:35.579Z,19.10
2022-11-10T21:13:24.369Z,18.87
2022-11-10T21:16:12.001Z,19.90
2022-11-10T21:18:59.736Z,22.52
2022-11-10T21:21:47.859Z,22.42
2022-11-10T21:24:35.459Z,20.10
2022-11-10T21:27:22.696Z,16.35
2022-11-10T21:30:14.293Z,27.55
2022-11-10T21:33:01.459Z,28.98
2022-11-10T21:35:53.242Z,38.25
2022-11-10T21:38:40.855Z,36.45
2022-11-10T21:41:28.066Z,40.35
2022-11-10T21:44:15.262Z,29.12
2022-11-10T21:47:04.506Z,32.20
2022-11-10T21:49:54.663Z,38.40
2022-11-10T21:52:41.787Z,36.10
2022-11-10T21:55:29.186Z,43.13
2022-11-10T21:58:16.386Z,33.23
2022-11-10T22:01:05.986Z,24.40
2022-11-10T22:03:54.480Z,31.42
2022-11-10T22:06:59.973Z,30.57
2022-11-10T22:10:05.299Z,26.30
2022-11-10T22:13:12.590Z,30.60
2022-11-10T22:16:13.644Z,30.23
2022-11-10T22:19:00.949Z,33.85
2022-11-10T22:21:48.818Z,26.65
2022-11-10T22:24:36.219Z,19.87
2022-11-10T22:27:23.653Z,21.60
2022-11-10T22:30:11.363Z,22.20
2022-11-10T22:33:00.492Z,26.42
2022-11-10T22:35:47.650Z,28.20
2022-11-10T22:38:36.403Z,26.02
2022-11-10T22:41:41.565Z,24.43
2022-11-10T22:44:28.804Z,18.80
2022-11-10T22:47:16.222Z,25.48
2022-11-10T22:50:03.625Z,28.00
2022-11-10T22:52:51.669Z,32.28
2022-11-10T22:55:39.174Z,33.13
2022-11-10T22:58:26.292Z,26.02
2022-11-10T23:01:13.953Z,30.70
2022-11-10T23:04:02.433Z,26.10
2022-11-10T23:06:49.846Z,29.48
2022-11-10T23:09:37.315Z,33.28
2022-11-10T23:12:24.594Z,32.70
2022-11-10T23:15:12.113Z,37.67
2022-11-10T23:18:03.863Z,36.40
2022-11-10T23:20:47.996Z,41.80
2022-11-10T23:23:37.214Z,37.93
2022-11-10T23:26:26.921Z,36.53
2022-11-10T23:29:13.852Z,28.23
2022-11-10T23:32:01.226Z,32.80
2022-11-10T23:34:48.634Z,35.92
2022-11-10T23:37:35.906Z,35.55
2022-11-10T23:40:26.202Z,35.08
2022-11-10T23:43:13.286Z,30.40
2022-11-10T23:46:08.320Z,33.40
2022-11-10T23:48:49.880Z,36.65
2022-11-10T23:51:41.982Z,38.63
2022-11-10T23:54:29.147Z,33.28
2022-11-10T23:57:16.325Z,35.88
